createdAt,value
2017-11-09T00:06:17.149Z,8.81
2017-11-09T00:16:16.932Z,8.83
2017-11-09T00:26:16.928Z,8.69
2017-11-09T00:36:16.893Z,8.79
2017-11-09T00:46:16.861Z,8.79
2017-11-09T00:56:16.919Z,8.69
2017-11-09T01:06:17.221Z,8.62
2017-11-09T01:16:16.968Z,8.66
2017-11-09T01:26:16.886Z,8.65
2017-11-09T01:36:18.188Z,8.63
2017-11-09T01:46:16.926Z,8.78
2017-11-09T01:56:16.997Z,8.71
2017-11-09T02:06:16.956Z,8.71
2017-11-09T02:16:17.039Z,8.58
2017-11-09T02:26:18.034Z,8.72
2017-11-09T02:36:17.406Z,8.65
2017-11-09T02:46:17.025Z,8.65
2017-11-09T02:56:16.964Z,8.58
2017-11-09T03:06:18.371Z,8.66
2017-11-09T03:16:16.992Z,8.69
2017-11-09T03:26:17.043Z,8.65
2017-11-09T03:36:17.313Z,8.58
2017-11-09T03:46:17.090Z,8.73
2017-11-09T03:56:17.044Z,8.53
2017-11-09T04:06:18.034Z,8.73
2017-11-09T04:16:18.072Z,8.78
2017-11-09T04:26:17.132Z,8.84
2017-11-09T04:36:17.440Z,8.72
2017-11-09T04:46:19.073Z,8.68
2017-11-09T04:56:17.136Z,8.75
2017-11-09T05:06:17.155Z,8.83
2017-11-09T05:16:17.109Z,8.87
2017-11-09T05:26:17.118Z,8.76
2017-11-09T05:36:17.141Z,8.72
2017-11-09T05:46:18.151Z,8.69
2017-11-09T05:56:17.188Z,8.84
2017-11-09T06:06:18.139Z,8.76
2017-11-09T06:16:17.231Z,8.75
2017-11-09T06:26:17.185Z,8.65
2017-11-09T06:36:17.213Z,8.72
2017-11-09T06:46:18.238Z,8.78
2017-11-09T06:56:17.275Z,8.68
2017-11-09T07:06:17.481Z,8.66
2017-11-09T07:16:17.176Z,8.81
2017-11-09T07:26:17.173Z,8.75
2017-11-09T07:36:17.185Z,8.88
2017-11-09T07:46:17.233Z,9.02
2017-11-09T07:56:17.200Z,8.96
2017-11-09T08:06:17.588Z,9.15
2017-11-09T08:16:17.209Z,9.27
2017-11-09T08:26:17.230Z,9.28
2017-11-09T08:36:17.230Z,9.04
2017-11-09T08:46:17.249Z,9.31
2017-11-09T08:56:17.267Z,9.57
2017-11-09T09:06:17.648Z,9.86
2017-11-09T09:16:17.291Z,10.1
2017-11-09T09:26:17.279Z,10.36
2017-11-09T09:36:17.346Z,10.51
2017-11-09T09:46:17.305Z,10.51
2017-11-09T09:56:17.308Z,10.42
2017-11-09T10:06:17.313Z,10.37
2017-11-09T10:16:17.360Z,10.04
2017-11-09T10:26:17.354Z,10.03
2017-11-09T10:36:17.335Z,10.25
2017-11-09T10:46:17.366Z,10.32
2017-11-09T10:56:17.427Z,10.17
2017-11-09T11:06:17.355Z,10.42
2017-11-09T11:16:17.406Z,10.25
2017-11-09T11:26:18.050Z,9.99
2017-11-09T11:36:17.389Z,9.99
2017-11-09T11:46:17.420Z,10.01
2017-11-09T11:56:17.550Z,9.82
2017-11-09T12:06:17.413Z,9.75
2017-11-09T12:16:17.414Z,9.78
2017-11-09T12:26:17.467Z,9.58
2017-11-09T12:36:17.417Z,9.79
2017-11-09T12:46:17.506Z,9.73
2017-11-09T12:56:17.464Z,9.86
2017-11-09T13:06:17.477Z,10.07
2017-11-09T13:16:17.498Z,9.93
2017-11-09T13:26:17.516Z,9.61
2017-11-09T13:36:17.513Z,9.58
2017-11-09T13:46:17.515Z,9.3
2017-11-09T13:56:17.523Z,9.42
2017-11-09T14:06:17.529Z,9.38
2017-11-09T14:16:17.534Z,9.39
2017-11-09T14:26:17.545Z,9.32
2017-11-09T14:36:17.622Z,9.64
2017-11-09T14:46:17.544Z,9.4
2017-11-09T14:56:17.573Z,9.46
2017-11-09T15:06:17.670Z,9.43
2017-11-09T15:16:17.671Z,9.21
2017-11-09T15:26:17.692Z,9.06
2017-11-09T15:36:17.618Z,9.15
2017-11-09T15:46:17.758Z,9.27
2017-11-09T15:56:17.693Z,8.97
2017-11-09T16:06:17.769Z,8.68
2017-11-09T16:16:17.681Z,8.47
2017-11-09T16:26:17.692Z,8.3
2017-11-09T16:36:18.096Z,8.2
2017-11-09T16:46:17.720Z,8.21
2017-11-09T16:56:17.680Z,8.35
2017-11-09T17:06:17.710Z,8.51
2017-11-09T17:16:17.809Z,8.65
2017-11-09T17:26:17.698Z,8.69
2017-11-09T17:36:17.717Z,8.83
2017-11-09T17:46:17.714Z,8.9
2017-11-09T17:56:17.754Z,8.97
2017-11-09T18:06:18.111Z,9.1
2017-11-09T18:16:17.731Z,9.18
2017-11-09T18:26:17.809Z,9.25
2017-11-09T18:36:17.777Z,9.32
2017-11-09T18:46:18.690Z,9.27
2017-11-09T18:56:18.519Z,9.34
2017-11-09T19:06:18.942Z,9.34
2017-11-09T19:16:21.134Z,9.39
2017-11-09T19:26:20.722Z,9.5
2017-11-09T19:36:27.686Z,9.35
2017-11-09T19:46:33.282Z,9.34
2017-11-09T19:56:24.475Z,9.25
2017-11-09T20:06:24.404Z,8.97
2017-11-09T20:16:26.355Z,8.78
2017-11-09T20:26:25.150Z,8.75
2017-11-09T20:36:27.559Z,8.63
2017-11-09T20:46:25.352Z,8.55
2017-11-09T20:56:22.621Z,8.6
2017-11-09T21:06:23.227Z,8.55
2017-11-09T21:16:20.558Z,8.55
2017-11-09T21:26:19.244Z,8.65
2017-11-09T21:36:19.156Z,8.54
2017-11-09T21:46:18.734Z,8.76
2017-11-09T21:56:25.666Z,8.78
2017-11-09T22:06:21.043Z,8.87
2017-11-09T22:16:19.762Z,8.81
2017-11-09T22:26:18.180Z,8.81
2017-11-09T22:36:18.062Z,8.66
2017-11-09T22:46:18.095Z,8.6
2017-11-09T22:56:18.063Z,8.63
2017-11-09T23:06:18.743Z,8.63
2017-11-09T23:16:18.207Z,8.6
2017-11-09T23:26:18.145Z,8.58
2017-11-09T23:36:18.183Z,8.62
2017-11-09T23:46:18.063Z,8.62
2017-11-09T23:56:18.295Z,8.63
